Ride Results

Smythesdale (07-05-2011)
Ride distance: 80.0 km

Outcomes - Smythesdale (07-05-2011)
Division No. of Entries Retired / DNE Completed Withdrawn Ineligible V/O Percentage Completed
HW 8 - 8 - - - 100.00%
MW 15 - 12 1 1 1 80.00%
LW 7 - 5 - - 2 71.43%
JN 2 - 2 - - - 100.00%
Totals 32 - 27 1 1 3 84.38%
Results - Smythesdale (07-05-2011)
No. Rider Horse Place Time Leg Speeds Total
Km/Hr
H/R bpm
Heavyweight
213 Amanda Jakiel Deneldan Sasha 1 (BC) 6:20:01 12.5, 12.6 12.63 26, 45, 53 (Avg:49)
111 Greg May Silhouette Rajah 2 6:22:03 11.9, 13.2 12.56 35, 41, 48 (Avg:44)
7 Robert Punicki Kazzo Park Ausborn 3 7:34:01 11.6, 9.6 10.57 30, 31, 41 (Avg:36)
313 Dom Falcomer Dejabu 4 7:34:02 11.6, 9.6 10.57 28, 44, 48 (Avg:46)
337 Allison Whitney Meshel 5 7:34:03 11.6, 9.6 10.57 34, 42, 42 (Avg:42)
235 Louise Mackey Performance Park Beau Dangles 6 7:35:00 11.5, 9.7 10.55 46, 46, 55 (Avg:50)
752 Neil Gardner Rivergum Delight 7 7:41:00 10.6, 10.2 10.41 33, 44, 44 (Avg:44)
115 Rod Mills Musical Gully Zanadu 8 7:48:00 10.3, 10.1 10.26 32, 43, 4 (Avg:23)
Middleweight
141 Jackie Drayton Clovelly Park Shandara 1 (BC) 5:32:00 14.8, 14.1 14.46 27, 4, 47 (Avg:25)
42 Hans Peuker Marybank Celia 1 5:32:00 14.8, 14.1 14.46 32, 44, 52 (Avg:48)
160 Jo-Anne Francis Hansaar 3 5:58:00 13.8, 12.9 13.41 35, 45, 48 (Avg:46)
70 Fiona Passarin Coranderrk Edison 3 5:58:00 13.8, 12.9 13.41 38, 47, 60 (Avg:53)
84 Kristie Taprell Castlebar Darthvader 5 6:22:00 12.4, 12.6 12.57 33, 39, 44 (Avg:41)
209 Kerrin Turney Kismet 5 6:22:00 12.2, 12.9 12.57 38, 45, 53 (Avg:49)
23 Brittnee D'Hondt Drumlin Moonfrost 7 6:22:01 13.0, 12.1 12.56 30, 48, 46 (Avg:47)
77 Trish Reeves Destined For Dubai 8 6:34:00 11.6, 12.7 12.18 24, 33, 40 (Avg:36)
756 Pele Cannon Magic Glenn Shady Lady 9 6:43:00 11.5, 12.3 11.91 38, 49, 42 (Avg:45)
158 Tamarra Gangur T'Neesha 10 7:27:00 10.8, 10.6 10.74 36, 46, 58 (Avg:52)
219 Caroline Noble Shakeem 11 7:41:00 10.6, 10.2 10.41 29, 43, 45 (Avg:44)
69 Sue Cavill Koonwarra Kavalier 12 7:46:00 10.9, 9.7 10.30 34, 38, 47 (Avg:42)
33 Vanessa Perry Zhara Heart Rate L2 0:00:00 11.5, 9.7 - 34, 52, 73 (Avg:62)
758 Rebecca Jeffrey Jeddah Under Novice Time L1
(On Course 2:58:00)
0:00:00 13.4 - 36, 41 (Avg:41)
67 John Osboldstone Ruby Widthdrawn L1 0:00:00 - - 38, 46 (Avg:46)
Lightweight
140 Michelle Munro Tiawarra Ramy 1 (BC) 5:32:00 14.8, 14.1 14.46 27, 41, 42 (Avg:41)
208 Janeen Smith Pterion Leonardo 2 6:20:00 12.5, 12.6 12.63 37, 47, 47 (Avg:47)
91 Kim Noble Menora Moon Dance 3 6:39:00 11.4, 12.6 12.03 41, 47, 52 (Avg:49)
740 Elodie LeLabourier Castlebar Nico 4 6:43:00 11.5, 12.3 11.91 32, 38, 44 (Avg:41)
114 Helen Spencer Imoan Party Girl 5 7:47:00 10.3, 10.2 10.28 32, 40, 42 (Avg:41)
743 Tanya Perry Windradyne Hot Pepper Lame L2 0:00:00 10.8, 10.6 - 34, 40, 45 (Avg:42)
61 Lois Sharam Musical Gully Carousel Gall or injury L1 0:00:00 10.3 - 31, 40 (Avg:40)
Junior
90 Samantha Noble Springridge Bungendore 1 (BC) 6:39:00 11.5, 12.5 12.03 28, 37, 34 (Avg:35)
745 Lucy Mills Billie 2 7:48:00 10.3, 10.1 10.26 35, 43, 51 (Avg:47)